Terminal Aerodrome Forecast
Issued by NWS Wakefield, VA

Home | Current Version | Previous Version | Text Only | Print | Product List | Glossary On
Versions: 1 2 3 4 5 6 7 8 9 10 11 12
000
FTUS41 KAKQ 271131
TAFORF
TAF
KORF 271131Z 2712/2812 03007KT P6SM SCT060
     FM271600 05011KT P6SM FEW050
     FM280800 04007KT P6SM BKN015=

USA.gov is the U.S. government's official web portal to all federal, state and local government web resources and services.